»·PEaware :: N9273T 8W5-KYKM

N9273T :: 8W5-KYKM

FLIGHT INFORMATION

Flight Status: Arrived
Operator: Privately registered:
United States
More flights under this callsign
Pilot: Jim L. (28297)
Aircraft: CESSNA T210 TURBO CENTURION
(T210)
More flights by this aircraft type
Origin: 8W5 Apex Airpark
United States
Destination: KYKM Yakima Air Term/Mcallister
United States
More flights between these airports :: More routes between these airports
Route:
File this flight plan on PilotEdge
Remarks: Alphabet Challenge Washington Edition
Altitude:
(Current/Filed)
11,500ft
Speed:
(Current/Filed)
142kts
Departed: 02-May-20 10:34 AM
Arrived: 02-May-20 11:34 AM
Distance/Time
Traveled:
111nm/0:59
Distance/Time
To Go:
Arrived

Flight Plot

Page will automatically refresh every two minutes.


Map Options




Map Legend


Flown Route
Filed Route
Departure Airport
Arrival Airport
Navaid (VOR, NDB)
Fix

Horizontal Profiles

Position Reports

Time Latitude Longitude Heading Altitude Ground
Speed
02-May-20 10:27 47.655897 -122.732835 285 528ft 0kts
02-May-20 10:28 47.655897 -122.732835 285 528ft 0kts
02-May-20 10:29 47.655897 -122.732835 285 528ft 0kts
02-May-20 10:30 47.655897 -122.732835 285 528ft 0kts
02-May-20 10:31 47.655897 -122.732836 285 528ft 0kts
02-May-20 10:32 47.657729 -122.732675 8 528ft 15kts
02-May-20 10:33 47.658911 -122.732712 186 528ft 43kts
02-May-20 10:34 47.636387 -122.738397 192 1624ft 93kts
02-May-20 10:35 47.610491 -122.752656 211 2850ft 102kts
02-May-20 10:36 47.583468 -122.753516 179 3960ft 98kts
02-May-20 10:37 47.554268 -122.758385 188 4994ft 112kts
02-May-20 10:38 47.522554 -122.766160 189 6005ft 119kts
02-May-20 10:39 47.489447 -122.774389 189 7011ft 122kts
02-May-20 10:40 47.455932 -122.782694 189 8013ft 122kts
02-May-20 10:41 47.422365 -122.791001 189 9011ft 122kts
02-May-20 10:42 47.388722 -122.799320 189 9954ft 125kts
02-May-20 10:43 47.353866 -122.807928 189 10861ft 128kts
02-May-20 10:44 47.317414 -122.816935 189 11509ft 149kts
02-May-20 10:45 47.272497 -122.828197 189 11498ft 164kts
02-May-20 10:46 47.228256 -122.839101 189 11499ft 160kts
02-May-20 10:47 47.184307 -122.849885 189 11499ft 160kts
02-May-20 10:48 47.140292 -122.860657 189 11500ft 160kts
02-May-20 10:49 47.096161 -122.871437 189 11500ft 161kts
02-May-20 10:50 47.051773 -122.882275 189 11500ft 162kts
02-May-20 10:51 47.007284 -122.893110 189 11500ft 162kts
02-May-20 10:52 46.966170 -122.882141 124 11500ft 161kts
02-May-20 10:53 46.947289 -122.822597 113 11500ft 161kts
02-May-20 10:54 46.929019 -122.762142 113 11500ft 162kts
02-May-20 10:55 46.910614 -122.702063 113 11500ft 162kts
02-May-20 10:56 46.892483 -122.643133 113 11499ft 162kts
02-May-20 10:57 46.873971 -122.583098 113 11500ft 162kts
02-May-20 10:58 46.855425 -122.523086 113 11500ft 162kts
02-May-20 10:59 46.836781 -122.462899 113 11500ft 162kts
02-May-20 11:00 46.818170 -122.402962 113 11500ft 162kts
02-May-20 11:01 46.799546 -122.343125 114 11499ft 162kts
02-May-20 11:02 46.780839 -122.283161 114 11500ft 162kts
02-May-20 11:03 46.762126 -122.223311 114 11500ft 162kts
02-May-20 11:04 46.743359 -122.163447 114 11500ft 162kts
02-May-20 11:05 46.724586 -122.103702 114 11500ft 162kts
02-May-20 11:06 46.705848 -122.044199 114 11500ft 162kts
02-May-20 11:07 46.686961 -121.984361 114 11500ft 162kts
02-May-20 11:08 46.668115 -121.924806 114 11500ft 162kts
02-May-20 11:09 46.649193 -121.865134 114 11500ft 162kts
02-May-20 11:10 46.630238 -121.805507 114 11500ft 162kts
02-May-20 11:11 46.611275 -121.746000 114 11500ft 162kts
02-May-20 11:12 46.592267 -121.686507 114 11500ft 162kts
02-May-20 11:13 46.578335 -121.625018 90 11501ft 162kts
02-May-20 11:14 46.577984 -121.559464 89 11500ft 162kts
02-May-20 11:15 46.577715 -121.493898 90 11500ft 162kts
02-May-20 11:16 46.577322 -121.428382 90 11500ft 162kts
02-May-20 11:17 46.576881 -121.362537 90 11386ft 169kts
02-May-20 11:18 46.576303 -121.293566 90 10506ft 171kts
02-May-20 11:19 46.575763 -121.225076 90 9603ft 168kts
02-May-20 11:20 46.575183 -121.157308 90 8701ft 166kts
02-May-20 11:21 46.574567 -121.090108 90 7800ft 166kts
02-May-20 11:22 46.573923 -121.023536 90 6903ft 165kts
02-May-20 11:23 46.573232 -120.956866 90 6000ft 164kts
02-May-20 11:24 46.572513 -120.890920 90 5101ft 163kts
02-May-20 11:25 46.571775 -120.826385 90 4217ft 162kts
02-May-20 11:26 46.570975 -120.759880 90 3302ft 161kts
02-May-20 11:27 46.566301 -120.695247 103 2398ft 160kts
02-May-20 11:28 46.555953 -120.636471 104 2093ft 133kts
02-May-20 11:29 46.547563 -120.587805 102 2107ft 117kts
02-May-20 11:30 46.548292 -120.541465 89 2086ft 116kts
02-May-20 11:31 46.547658 -120.498604 39 2031ft 103kts
02-May-20 11:32 46.562682 -120.520181 289 1295ft 82kts
02-May-20 11:33 46.567477 -120.539425 290 1103ft 14kts
02-May-20 11:34 46.568346 -120.539579 55 1103ft 0kts
02-May-20 11:35 46.567850 -120.536064 110 1103ft 17kts
02-May-20 11:36 46.567268 -120.531497 18 1103ft 8kts
02-May-20 11:37 46.567705 -120.531128 251 1103ft 0kts

Navigation Log

Ident Type
Flight plan parsing failed, navigation log unavailable